Etusivu
METAR-TAF:

METAR-TAF

Lentoasemat :

Ciudad Obregón, Meksiko

Leveyspiiri: 27-24N, Pituuspiiri: 109-50W, korkeus merenpinnasta: 62 m

Tämänhetkinen sää

Tämä raportti tehtiin 12 tuntia ja 21 minuuttia sitten, kello 00.40 UTC
Tuuli 10 kn lännestä
Lämpötila 22°C
Kosteus 33%
Ilmanpaine 1012 hPa
Näkyvyys: 16.1 km
Hajanaisia pilviä 20000 ft:n korkeudessa

METAR: MMCN 290040Z 27010KT 10SM SCT200 22/05 A2987 RMK 8/008 HZY

Aika: 06:01 (13:01 UTC)

Sääennuste

Tämä raportti tehtiin 8 tuntia ja 9 minuuttia sitten, kello 04.52 UTC
Ennuste voimassa 29. päivästä klo 06 UTC - 30. päivään klo 06 UTC
Tuuli 5 kn lännestä/luoteesta
Näkyvyys: 10 km
Hajanaisia pilviä 20000 ft:n korkeudessa
From 29. päivästä klo 1800 UTC
Tuuli 15 kn lännestä
Näkyvyys: 10 km
Hajonneita pilviä 20000 ft:n korkeudessa
Tulossa
30. päivästä klo 01 UTC - 30. päivään klo 02 UTC
Tuuli 5 kn luoteesta

TAF: MMCN 290452Z 2906/3006 30005KT P6SM SCT200 FM291800 28015KT P6SM BKN200 BECMG 3001/3002 32005KT

Säähavainnot ja -ennusteet yli 4000 lentoasemalta (METAR- ja TAF-raportit).

Käytössä olevat sääasemat on merkitty karttaan keltaisilla ja punaisilla pisteillä.

Aseta hiiri pisteen päälle nähdäksesi sääaseman nimen.

Klikkaa sitten nähdäksesi säähavainnot ja -ennusteet.

Kartan vaihtaminen: klikkaa mustalla rastilla varustettuja vihreitä pisteitä, niin voit zoomata sisään; viivalla varustettua vihreää pistettä, niin voit zoomata ulos tai vihreitä nuolia, niin pääset viereisille kartoille.


METAR-TAF: